createdAt,value
2018-07-23T00:02:01.710Z,98461.38
2018-07-23T00:04:30.697Z,98459.45
2018-07-23T00:06:59.812Z,98466.94
2018-07-23T00:09:28.783Z,98471.80
2018-07-23T00:11:57.760Z,98466.22
2018-07-23T00:14:26.748Z,98465.00
2018-07-23T00:16:55.720Z,98457.20
2018-07-23T00:19:24.712Z,98449.20
2018-07-23T00:21:53.753Z,98449.98
2018-07-23T00:24:22.796Z,98456.57
2018-07-23T00:26:51.760Z,98442.80
2018-07-23T00:29:21.080Z,98439.31
2018-07-23T00:31:50.123Z,98446.71
2018-07-23T00:34:19.091Z,98432.33
2018-07-23T00:36:48.072Z,98425.34
2018-07-23T00:39:17.062Z,98426.64
2018-07-23T00:41:46.162Z,98425.28
2018-07-23T00:44:15.128Z,98413.11
2018-07-23T00:46:44.160Z,98397.22
2018-07-23T00:49:13.233Z,98386.88
2018-07-23T00:51:42.333Z,98374.73
2018-07-23T00:54:11.318Z,98362.59
2018-07-23T00:56:40.428Z,98349.08
2018-07-23T00:59:09.542Z,98333.89
2018-07-23T01:01:38.550Z,98321.00
2018-07-23T01:04:07.577Z,98306.30
2018-07-23T01:06:36.596Z,98301.73
2018-07-23T01:09:07.851Z,98288.70
2018-07-23T01:11:37.180Z,98277.77
2018-07-23T01:14:06.414Z,98256.50
2018-07-23T01:16:35.524Z,98225.53
2018-07-23T01:19:04.587Z,98199.41
2018-07-23T01:21:33.716Z,98184.64
2018-07-23T01:24:02.808Z,98185.14
2018-07-23T01:26:31.871Z,98189.17
2018-07-23T01:29:00.928Z,98173.08
2018-07-23T01:31:29.920Z,98153.60
2018-07-23T01:33:58.936Z,98144.37
2018-07-23T01:36:27.956Z,98141.93
2018-07-23T01:38:56.915Z,98161.76
2018-07-23T01:41:25.948Z,98167.51
2018-07-23T01:43:54.917Z,98170.27
2018-07-23T01:46:23.895Z,98176.55
2018-07-23T01:48:52.908Z,98182.86
2018-07-23T01:51:21.939Z,98177.51
2018-07-23T01:53:50.902Z,98168.70
2018-07-23T01:56:19.868Z,98148.73
2018-07-23T01:58:48.868Z,98136.56
2018-07-23T02:01:18.088Z,98141.95
2018-07-23T02:03:47.122Z,98140.03
2018-07-23T02:06:16.152Z,98141.54
2018-07-23T02:08:45.205Z,98143.13
2018-07-23T02:11:14.280Z,98144.05
2018-07-23T02:13:43.303Z,98138.98
2018-07-23T02:16:12.339Z,98142.55
2018-07-23T02:18:41.325Z,98144.98
2018-07-23T02:21:10.376Z,98143.04
2018-07-23T02:23:39.346Z,98137.64
2018-07-23T02:26:08.448Z,98132.56
2018-07-23T02:28:37.544Z,98133.67
2018-07-23T02:31:06.702Z,98134.28
2018-07-23T02:33:35.791Z,98130.75
2018-07-23T02:36:04.784Z,98131.53
2018-07-23T02:38:33.790Z,98137.55
2018-07-23T02:41:02.796Z,98136.45
2018-07-23T02:43:31.984Z,98136.05
2018-07-23T02:46:01.041Z,98139.92
2018-07-23T02:48:29.999Z,98147.41
2018-07-23T02:50:59.064Z,98145.67
2018-07-23T02:53:28.129Z,98143.05
2018-07-23T02:55:57.168Z,98145.77
2018-07-23T02:58:26.268Z,98141.73
2018-07-23T03:00:55.325Z,98140.42
2018-07-23T03:03:24.340Z,98143.76
2018-07-23T03:05:53.536Z,98139.80
2018-07-23T03:08:22.795Z,98140.52
2018-07-23T03:10:51.776Z,98149.52
2018-07-23T03:13:20.816Z,98160.81
2018-07-23T03:15:49.889Z,98162.42
2018-07-23T03:18:18.952Z,98161.31
2018-07-23T03:20:47.940Z,98152.79
2018-07-23T03:23:16.901Z,98162.83
2018-07-23T03:25:45.883Z,98162.02
2018-07-23T03:28:14.864Z,98165.59
2018-07-23T03:30:43.921Z,98171.84
2018-07-23T03:33:13.058Z,98169.33
2018-07-23T03:35:42.161Z,98179.66
2018-07-23T03:38:11.244Z,98185.63
2018-07-23T03:40:40.300Z,98187.44
2018-07-23T03:43:09.448Z,98193.94
2018-07-23T03:45:38.540Z,98199.78
2018-07-23T03:48:07.700Z,98200.09
2018-07-23T03:50:36.819Z,98199.16
2018-07-23T03:53:06.020Z,98198.36
2018-07-23T03:55:35.080Z,98199.34
2018-07-23T03:58:04.098Z,98204.19
2018-07-23T04:00:33.221Z,98198.41
2018-07-23T04:03:02.253Z,98197.78
2018-07-23T04:05:31.413Z,98199.18
2018-07-23T04:08:00.460Z,98196.23
2018-07-23T04:10:29.485Z,98192.70
2018-07-23T04:12:58.528Z,98194.31
2018-07-23T04:15:27.568Z,98197.75
2018-07-23T04:18:02.550Z,98197.44
2018-07-23T04:20:33.132Z,98196.52
2018-07-23T04:23:02.300Z,98199.44
2018-07-23T04:25:31.585Z,98203.30
2018-07-23T04:28:01.156Z,98200.03
2018-07-23T04:30:30.207Z,98211.55
2018-07-23T04:32:59.355Z,98209.09
2018-07-23T04:35:28.463Z,98209.41
2018-07-23T04:37:57.587Z,98211.05
2018-07-23T04:40:26.620Z,98207.19
2018-07-23T04:42:55.682Z,98204.19
2018-07-23T04:45:24.733Z,98221.76
2018-07-23T04:47:53.772Z,98235.59
2018-07-23T04:50:22.871Z,98241.56
2018-07-23T04:52:51.896Z,98249.66
2018-07-23T04:55:20.928Z,98255.44
2018-07-23T04:57:50.004Z,98247.78
2018-07-23T05:00:19.107Z,98247.71
2018-07-23T05:02:48.140Z,98241.76
2018-07-23T05:05:17.163Z,98249.97
2018-07-23T05:07:46.268Z,98254.15
2018-07-23T05:10:15.296Z,98248.28
2018-07-23T05:12:44.324Z,98259.27
2018-07-23T05:15:13.381Z,98258.09
2018-07-23T05:17:42.417Z,98247.50
2018-07-23T05:20:11.544Z,98250.38
2018-07-23T05:22:40.638Z,98253.15
2018-07-23T05:25:09.688Z,98253.49
2018-07-23T05:27:38.712Z,98242.44
2018-07-23T05:30:07.811Z,98234.81
2018-07-23T05:32:36.958Z,98236.63
2018-07-23T05:35:06.085Z,98235.58
2018-07-23T05:37:35.123Z,98227.78
2018-07-23T05:40:04.208Z,98225.89
2018-07-23T05:42:33.229Z,98229.94
2018-07-23T05:45:02.421Z,98229.10
2018-07-23T05:47:31.409Z,98226.37
2018-07-23T05:50:00.409Z,98223.69
2018-07-23T05:52:29.443Z,98220.37
2018-07-23T05:54:58.540Z,98220.75
2018-07-23T05:57:27.551Z,98224.42
2018-07-23T05:59:56.572Z,98232.66
2018-07-23T06:02:25.554Z,98230.31
2018-07-23T06:04:54.548Z,98231.31
2018-07-23T06:07:23.560Z,98230.61
2018-07-23T06:09:52.523Z,98233.45
2018-07-23T06:12:21.643Z,98231.92
2018-07-23T06:14:50.603Z,98232.50
2018-07-23T06:17:19.752Z,98236.20
2018-07-23T06:19:48.806Z,98233.55
2018-07-23T06:22:17.819Z,98234.83
2018-07-23T06:24:47.136Z,98205.53
2018-07-23T06:27:16.109Z,98223.36
2018-07-23T06:29:45.124Z,98226.92
2018-07-23T06:32:14.197Z,98229.53
2018-07-23T06:34:43.267Z,98234.08
2018-07-23T06:37:12.248Z,98226.52
2018-07-23T06:39:41.273Z,98236.30
2018-07-23T06:42:11.206Z,98243.79
2018-07-23T06:44:40.155Z,98242.23
2018-07-23T06:47:09.270Z,98236.09
2018-07-23T06:49:38.301Z,98229.97
2018-07-23T06:52:07.500Z,98229.42
2018-07-23T06:54:36.529Z,98220.67
2018-07-23T06:57:05.887Z,98221.38
2018-07-23T06:59:35.373Z,98220.50
2018-07-23T07:02:04.900Z,98215.20
2018-07-23T07:04:33.989Z,98209.02
2018-07-23T07:07:03.072Z,98207.47
2018-07-23T07:09:32.124Z,98209.05
2018-07-23T07:12:01.112Z,98206.81
2018-07-23T07:14:30.101Z,98206.01
2018-07-23T07:16:59.123Z,98208.47
2018-07-23T07:19:28.209Z,98205.60
2018-07-23T07:21:57.205Z,98189.71
2018-07-23T07:24:26.278Z,98193.91
2018-07-23T07:26:55.316Z,98192.43
2018-07-23T07:29:25.271Z,98194.15
2018-07-23T07:31:54.240Z,98197.94
2018-07-23T07:34:23.207Z,98192.52
2018-07-23T07:36:52.184Z,98188.60
2018-07-23T07:39:21.232Z,98186.52
2018-07-23T07:41:50.285Z,98186.95
2018-07-23T07:44:19.308Z,98198.88
2018-07-23T07:46:48.259Z,98204.27
2018-07-23T07:49:17.224Z,98201.87
2018-07-23T07:51:46.195Z,98207.82
2018-07-23T07:54:15.171Z,98203.23
2018-07-23T07:56:44.220Z,98202.98
2018-07-23T07:59:13.365Z,98204.79
2018-07-23T08:01:42.381Z,98204.88
2018-07-23T08:04:11.355Z,98207.61
2018-07-23T08:06:40.368Z,98208.69
2018-07-23T08:09:10.225Z,98198.84
2018-07-23T08:11:39.928Z,98199.63
2018-07-23T08:14:09.148Z,98202.27
2018-07-23T08:16:38.212Z,98194.67
2018-07-23T08:19:07.255Z,98182.33
2018-07-23T08:21:36.253Z,98166.53
2018-07-23T08:24:05.292Z,98164.27
2018-07-23T08:26:34.305Z,98162.72
2018-07-23T08:29:03.393Z,98168.39
2018-07-23T08:31:32.408Z,98165.22
2018-07-23T08:34:01.456Z,98174.84
2018-07-23T08:36:30.495Z,98175.59
2018-07-23T08:38:59.518Z,98179.02
2018-07-23T08:41:28.589Z,98168.94
2018-07-23T08:43:57.600Z,98168.12
2018-07-23T08:46:26.638Z,98179.41
2018-07-23T08:48:55.620Z,98172.58
2018-07-23T08:51:24.635Z,98170.83
2018-07-23T08:53:53.663Z,98165.83
2018-07-23T08:56:22.709Z,98163.08
2018-07-23T08:58:51.760Z,98161.72
2018-07-23T09:01:20.746Z,98164.38
2018-07-23T09:03:49.723Z,98157.72
2018-07-23T09:06:18.709Z,98152.41
2018-07-23T09:08:47.752Z,98150.86
2018-07-23T09:11:16.764Z,98151.73
2018-07-23T09:13:45.728Z,98149.72
2018-07-23T09:16:14.915Z,98142.75
2018-07-23T09:18:43.907Z,98144.45
2018-07-23T09:21:12.945Z,98139.88
2018-07-23T09:23:47.679Z,98138.02
2018-07-23T09:26:16.667Z,98131.11
2018-07-23T09:28:45.718Z,98123.83
2018-07-23T09:31:14.686Z,98121.22
2018-07-23T09:33:43.661Z,98120.11
2018-07-23T09:36:12.663Z,98121.98
2018-07-23T09:38:41.839Z,98119.05
2018-07-23T09:41:10.992Z,98117.92
2018-07-23T09:43:40.033Z,98121.31
2018-07-23T09:46:09.063Z,98117.06
2018-07-23T09:48:38.281Z,98117.12
2018-07-23T09:51:07.268Z,98109.27
2018-07-23T09:53:37.444Z,98102.64
2018-07-23T09:56:07.044Z,98099.11
2018-07-23T09:58:36.067Z,98096.53
2018-07-23T10:01:10.172Z,98093.45
2018-07-23T10:03:39.196Z,98100.83
2018-07-23T10:06:08.284Z,98097.28
2018-07-23T10:08:37.296Z,98092.88
2018-07-23T10:11:06.275Z,98088.91
2018-07-23T10:13:35.276Z,98087.42
2018-07-23T10:16:04.291Z,98093.41
2018-07-23T10:18:33.418Z,98093.31
2018-07-23T10:21:02.415Z,98096.54
2018-07-23T10:23:31.468Z,98094.80
2018-07-23T10:26:00.487Z,98098.09
2018-07-23T10:28:29.447Z,98091.11
2018-07-23T10:30:58.436Z,98089.19
2018-07-23T10:33:27.427Z,98085.73
2018-07-23T10:35:56.470Z,98080.66
2018-07-23T10:38:25.468Z,98075.41
2018-07-23T10:40:54.484Z,98061.97
2018-07-23T10:43:23.468Z,98051.11
2018-07-23T10:45:52.503Z,98048.03
2018-07-23T10:48:21.608Z,98042.27
2018-07-23T10:50:50.786Z,98044.52
2018-07-23T10:53:19.979Z,98039.21
2018-07-23T10:55:48.969Z,98037.54
2018-07-23T10:58:17.961Z,98030.61
2018-07-23T11:00:47.229Z,98031.67
2018-07-23T11:03:16.197Z,98026.64
2018-07-23T11:05:45.272Z,98027.69
2018-07-23T11:08:14.321Z,98033.16
2018-07-23T11:10:43.373Z,98028.93
2018-07-23T11:13:12.360Z,98021.81
2018-07-23T11:15:41.428Z,98023.52
2018-07-23T11:18:10.509Z,98013.94
2018-07-23T11:20:39.496Z,98010.97
2018-07-23T11:23:08.572Z,98006.52
2018-07-23T11:25:39.636Z,98001.86
2018-07-23T11:28:06.907Z,97992.62
2018-07-23T11:30:35.951Z,97989.36
2018-07-23T11:33:04.963Z,97985.46
2018-07-23T11:35:34.018Z,97996.58
2018-07-23T11:38:02.995Z,97997.70
2018-07-23T11:40:32.023Z,97990.11
2018-07-23T11:43:01.013Z,98006.34
2018-07-23T11:45:30.073Z,98007.58
2018-07-23T11:47:59.113Z,98013.78
2018-07-23T11:50:28.161Z,98007.30
2018-07-23T11:52:57.241Z,97999.02
2018-07-23T11:55:26.207Z,97995.14
2018-07-23T11:57:55.308Z,97995.53
2018-07-23T12:00:24.383Z,97988.63
2018-07-23T12:02:53.363Z,97970.68
2018-07-23T12:05:22.479Z,97966.15
2018-07-23T12:07:51.529Z,97968.43
2018-07-23T12:10:20.780Z,97973.83
2018-07-23T12:12:49.851Z,97987.44
2018-07-23T12:15:18.820Z,97988.27
2018-07-23T12:17:47.876Z,97996.04
2018-07-23T12:20:16.865Z,97997.86
2018-07-23T12:22:45.852Z,98002.92
2018-07-23T12:25:15.285Z,98024.94
2018-07-23T12:27:44.371Z,98035.84
2018-07-23T12:30:13.357Z,98028.48
2018-07-23T12:32:42.354Z,98024.78
2018-07-23T12:35:11.397Z,98026.25
2018-07-23T12:37:40.437Z,98040.43
2018-07-23T12:40:09.481Z,98047.36
2018-07-23T12:42:38.457Z,98042.95
2018-07-23T12:45:07.533Z,98044.59
2018-07-23T12:47:36.599Z,98036.95
2018-07-23T12:50:05.783Z,98034.91
2018-07-23T12:52:34.783Z,98032.66
2018-07-23T12:55:03.924Z,98026.18
2018-07-23T12:57:32.905Z,98011.67
2018-07-23T13:00:02.096Z,97995.61
2018-07-23T13:02:31.042Z,97994.33
2018-07-23T13:05:00.073Z,97997.42
2018-07-23T13:07:29.146Z,97997.71
2018-07-23T13:09:58.126Z,98003.45
2018-07-23T13:12:27.468Z,98007.84
2018-07-23T13:14:56.614Z,98000.92
2018-07-23T13:17:25.539Z,97990.62
2018-07-23T13:19:54.727Z,97993.09
2018-07-23T13:22:23.767Z,97988.91
2018-07-23T13:24:52.921Z,97982.06
2018-07-23T13:27:22.025Z,97982.58
2018-07-23T13:29:51.056Z,97984.69
2018-07-23T13:32:20.057Z,97985.70
2018-07-23T13:34:49.033Z,97984.59
2018-07-23T13:37:18.027Z,97979.38
2018-07-23T13:39:46.997Z,97961.95
2018-07-23T13:42:16.090Z,97964.06
2018-07-23T13:44:45.061Z,97963.47
2018-07-23T13:47:14.053Z,97954.25
2018-07-23T13:49:43.030Z,97955.06
2018-07-23T13:52:12.123Z,97945.11
2018-07-23T13:54:41.180Z,97949.55
2018-07-23T13:57:10.204Z,97951.45
2018-07-23T13:59:39.244Z,97950.37
2018-07-23T14:02:08.236Z,97962.59
2018-07-23T14:04:37.276Z,97956.75
2018-07-23T14:07:06.365Z,97955.08
2018-07-23T14:09:35.330Z,97948.95
2018-07-23T14:12:04.316Z,97948.18
2018-07-23T14:14:33.288Z,97947.22
2018-07-23T14:17:02.341Z,97944.78
2018-07-23T14:19:31.376Z,97937.97
2018-07-23T14:22:00.421Z,97932.95
2018-07-23T14:24:29.460Z,97921.38
2018-07-23T14:26:58.528Z,97925.38
2018-07-23T14:29:27.526Z,97910.42
2018-07-23T14:31:56.524Z,97910.35
2018-07-23T14:34:25.621Z,97911.61
2018-07-23T14:36:54.656Z,97916.29
2018-07-23T14:39:23.691Z,97926.61
2018-07-23T14:41:52.720Z,97913.41
2018-07-23T14:44:21.836Z,97911.17
2018-07-23T14:46:50.884Z,97920.86
2018-07-23T14:49:19.949Z,97925.81
2018-07-23T14:51:49.055Z,97929.61
2018-07-23T14:54:18.033Z,97935.67
2018-07-23T14:56:47.396Z,97932.47
2018-07-23T14:59:16.424Z,97929.14
2018-07-23T15:01:45.407Z,97935.98
2018-07-23T15:04:14.397Z,97938.64
2018-07-23T15:06:43.379Z,97927.27
2018-07-23T15:09:12.459Z,97932.83
2018-07-23T15:11:41.466Z,97926.17
2018-07-23T15:14:10.691Z,97937.73
2018-07-23T15:16:40.533Z,97937.88
2018-07-23T15:19:09.604Z,97946.11
2018-07-23T15:21:38.735Z,97941.86
2018-07-23T15:24:07.815Z,97947.69
2018-07-23T15:26:37.421Z,97951.55
2018-07-23T15:29:06.669Z,97955.63
2018-07-23T15:31:37.213Z,97956.06
2018-07-23T15:34:06.379Z,97955.19
2018-07-23T15:36:35.520Z,97960.05
2018-07-23T15:39:07.271Z,97955.55
2018-07-23T15:41:36.416Z,97947.18
2018-07-23T15:44:06.070Z,97941.11
2018-07-23T15:46:35.074Z,97937.41
2018-07-23T15:49:04.232Z,97934.47
2018-07-23T15:51:34.910Z,97943.69
2018-07-23T15:54:03.903Z,97945.63
2018-07-23T15:56:32.879Z,97942.86
2018-07-23T15:59:08.264Z,97945.95
2018-07-23T16:01:37.296Z,97940.58
2018-07-23T16:04:06.365Z,97941.00
2018-07-23T16:06:35.420Z,97947.59
2018-07-23T16:09:06.696Z,97942.52
2018-07-23T16:11:35.676Z,97939.98
2018-07-23T16:14:04.680Z,97943.17
2018-07-23T16:16:33.655Z,97954.30
2018-07-23T16:19:02.774Z,97954.25
2018-07-23T16:21:31.704Z,97952.97
2018-07-23T16:24:00.737Z,97954.33
2018-07-23T16:26:29.991Z,97960.80
2018-07-23T16:28:59.500Z,97950.31
2018-07-23T16:31:28.508Z,97955.02
2018-07-23T16:33:57.518Z,97953.28
2018-07-23T16:36:26.543Z,97958.73
2018-07-23T16:38:55.529Z,97966.64
2018-07-23T16:41:24.551Z,97965.37
2018-07-23T16:43:53.592Z,97969.02
2018-07-23T16:46:22.656Z,97972.33
2018-07-23T16:48:51.639Z,97982.26
2018-07-23T16:51:20.605Z,97985.05
2018-07-23T16:53:49.685Z,97984.91
2018-07-23T16:56:18.663Z,97986.03
2018-07-23T16:58:47.740Z,97992.05
2018-07-23T17:01:16.712Z,97996.50
2018-07-23T17:03:45.728Z,97995.61
2018-07-23T17:06:14.707Z,98003.06
2018-07-23T17:08:43.704Z,98002.94
2018-07-23T17:11:12.726Z,98004.80
2018-07-23T17:13:41.701Z,98006.88
2018-07-23T17:16:10.695Z,98005.78
2018-07-23T17:18:39.664Z,98011.89
2018-07-23T17:21:09.562Z,98016.84
2018-07-23T17:23:38.643Z,98012.42
2018-07-23T17:26:07.625Z,98011.60
2018-07-23T17:28:36.651Z,98009.60
2018-07-23T17:31:05.644Z,98006.09
2018-07-23T17:33:34.631Z,98009.08
2018-07-23T17:36:03.756Z,97997.42
2018-07-23T17:38:32.745Z,97997.95
2018-07-23T17:41:01.823Z,97993.48
2018-07-23T17:43:30.839Z,97999.13
2018-07-23T17:45:59.821Z,97993.56
2018-07-23T17:48:28.915Z,97996.48
2018-07-23T17:50:57.875Z,97992.66
2018-07-23T17:53:26.882Z,97991.80
2018-07-23T17:55:55.868Z,97996.86
2018-07-23T17:58:24.855Z,97999.23
2018-07-23T18:00:53.875Z,98007.85
2018-07-23T18:03:22.844Z,98009.91
2018-07-23T18:05:51.939Z,98010.27
2018-07-23T18:08:20.939Z,98006.53
2018-07-23T18:10:49.945Z,98004.11
2018-07-23T18:13:18.992Z,98004.67
2018-07-23T18:15:48.032Z,98004.48
2018-07-23T18:18:18.471Z,98002.39
2018-07-23T18:20:47.456Z,98022.76
2018-07-23T18:23:16.481Z,98019.52
2018-07-23T18:25:45.515Z,98021.80
2018-07-23T18:28:14.485Z,98030.78
2018-07-23T18:30:43.491Z,98020.59
2018-07-23T18:33:12.470Z,98013.90
2018-07-23T18:35:41.577Z,98012.75
2018-07-23T18:38:10.738Z,98022.14
2018-07-23T18:40:39.843Z,98026.33
2018-07-23T18:43:08.920Z,98024.33
2018-07-23T18:45:37.913Z,98030.06
2018-07-23T18:48:16.577Z,98029.77
2018-07-23T18:50:45.596Z,98028.02
2018-07-23T18:53:21.919Z,98038.15
2018-07-23T18:55:51.135Z,98050.26
2018-07-23T18:58:20.387Z,98043.94
2018-07-23T19:00:49.441Z,98047.47
2018-07-23T19:03:18.516Z,98040.71
2018-07-23T19:05:47.727Z,98025.38
2018-07-23T19:08:16.823Z,98023.45
2018-07-23T19:10:45.881Z,98030.88
2018-07-23T19:13:14.884Z,98036.88
2018-07-23T19:15:43.928Z,98055.58
2018-07-23T19:18:12.917Z,98056.84
2018-07-23T19:20:41.900Z,98044.30
2018-07-23T19:23:10.863Z,98040.05
2018-07-23T19:25:39.923Z,98035.52
2018-07-23T19:28:08.960Z,98043.73
2018-07-23T19:30:37.945Z,98057.66
2018-07-23T19:33:07.254Z,98049.73
2018-07-23T19:35:36.353Z,98043.58
2018-07-23T19:38:05.396Z,98042.25
2018-07-23T19:40:34.368Z,98034.61
2018-07-23T19:43:03.485Z,98031.62
2018-07-23T19:45:32.455Z,98032.64
2018-07-23T19:48:01.496Z,98034.68
2018-07-23T19:50:30.492Z,98029.93
2018-07-23T19:52:59.511Z,98032.13
2018-07-23T19:55:28.594Z,98023.23
2018-07-23T19:57:57.577Z,98020.53
2018-07-23T20:00:26.636Z,98020.81
2018-07-23T20:02:55.704Z,98013.44
2018-07-23T20:05:24.726Z,98010.04
2018-07-23T20:07:53.740Z,98008.28
2018-07-23T20:10:22.699Z,98000.30
2018-07-23T20:12:51.696Z,98005.41
2018-07-23T20:15:20.684Z,98002.71
2018-07-23T20:17:49.804Z,98011.89
2018-07-23T20:20:18.870Z,98004.34
2018-07-23T20:22:47.895Z,98016.00
2018-07-23T20:25:16.957Z,98011.37
2018-07-23T20:27:45.979Z,98012.63
2018-07-23T20:30:15.001Z,98017.03
2018-07-23T20:32:43.980Z,98010.94
2018-07-23T20:35:13.099Z,97997.14
2018-07-23T20:37:42.079Z,98016.49
2018-07-23T20:40:11.111Z,98007.26
2018-07-23T20:42:40.186Z,98011.80
2018-07-23T20:45:09.267Z,98013.34
2018-07-23T20:47:38.345Z,98018.52
2018-07-23T20:50:07.421Z,98012.14
2018-07-23T20:52:36.557Z,98011.92
2018-07-23T20:55:05.563Z,98017.80
2018-07-23T20:57:34.551Z,98019.17
2018-07-23T21:00:03.681Z,98016.03
2018-07-23T21:02:32.652Z,98011.64
2018-07-23T21:05:01.660Z,98014.88
2018-07-23T21:07:30.947Z,98011.64
2018-07-23T21:10:00.021Z,98015.00
2018-07-23T21:12:29.016Z,98013.17
2018-07-23T21:14:58.242Z,98011.47
2018-07-23T21:17:27.248Z,98021.20
2018-07-23T21:19:56.243Z,98015.84
2018-07-23T21:22:25.408Z,98014.04
2018-07-23T21:24:54.465Z,98008.98
2018-07-23T21:27:23.521Z,98008.27
2018-07-23T21:29:52.498Z,98008.86
2018-07-23T21:32:21.555Z,98013.64
2018-07-23T21:34:50.541Z,98018.16
2018-07-23T21:37:19.596Z,98016.99
2018-07-23T21:39:48.640Z,98016.56
2018-07-23T21:42:17.947Z,98012.39
2018-07-23T21:44:47.043Z,98013.30
2018-07-23T21:47:16.029Z,98008.00
2018-07-23T21:49:45.045Z,98005.79
2018-07-23T21:52:14.120Z,98003.73
2018-07-23T21:54:43.089Z,98003.16
2018-07-23T21:57:12.224Z,97998.45
2018-07-23T21:59:41.287Z,98003.52
2018-07-23T22:02:10.812Z,98005.93
2018-07-23T22:04:39.888Z,98003.30
2018-07-23T22:07:08.989Z,97996.59
2018-07-23T22:09:38.000Z,97999.52
2018-07-23T22:12:07.060Z,97994.77
2018-07-23T22:14:36.143Z,97997.77
2018-07-23T22:17:05.128Z,97999.39
2018-07-23T22:19:34.138Z,98000.77
2018-07-23T22:22:03.227Z,97992.13
2018-07-23T22:24:32.292Z,97997.48
2018-07-23T22:27:01.297Z,97994.91
2018-07-23T22:29:30.271Z,97991.70
2018-07-23T22:31:59.311Z,97985.99
2018-07-23T22:34:28.276Z,97982.38
2018-07-23T22:36:57.349Z,97978.34
2018-07-23T22:39:26.341Z,97974.44
2018-07-23T22:41:55.383Z,97974.77
2018-07-23T22:44:24.407Z,97980.04
2018-07-23T22:46:53.404Z,97978.22
2018-07-23T22:49:22.523Z,97986.80
2018-07-23T22:51:51.567Z,97981.67
2018-07-23T22:54:20.523Z,97984.53
2018-07-23T22:56:49.557Z,97979.64
2018-07-23T22:59:18.596Z,97976.47
2018-07-23T23:01:47.744Z,97979.86
2018-07-23T23:04:16.717Z,97973.05
2018-07-23T23:06:45.833Z,97968.66
2018-07-23T23:09:14.883Z,97966.37
2018-07-23T23:11:43.847Z,97961.26
2018-07-23T23:14:12.892Z,97965.93
2018-07-23T23:16:41.912Z,97965.41
2018-07-23T23:19:13.760Z,97959.42
2018-07-23T23:21:42.752Z,97960.95
2018-07-23T23:24:11.807Z,97953.77
2018-07-23T23:26:40.778Z,97952.49
2018-07-23T23:29:09.939Z,97944.02
2018-07-23T23:31:38.940Z,97948.83
2018-07-23T23:34:07.928Z,97947.02
2018-07-23T23:36:36.955Z,97949.30
2018-07-23T23:39:09.217Z,97950.39
2018-07-23T23:41:38.356Z,97951.81
2018-07-23T23:44:07.440Z,97949.57
2018-07-23T23:46:36.620Z,97953.09
2018-07-23T23:49:05.751Z,97946.76
2018-07-23T23:51:34.734Z,97947.69
2018-07-23T23:54:03.832Z,97945.05
2018-07-23T23:56:32.884Z,97944.23
2018-07-23T23:59:01.971Z,97937.08
